C62

Kendallville Municipal Airport

Kendallville, Indiana, USA
METAR KC62 232235Z AUTO 16014G20KT 10SM BKN020 BKN041 OVC080 15/08 A3013 RMK AO2 T01480091
Observed Flight Rules
Apr-23 @ 22:35 UTC (21 minutes ago) Marginal Visual Flight Rules
Wind Visibility Clouds
160° at 14 knots
 Gusting to 20 knots
10 miles
  • Broken at 2,000' AGL
  • Broken at 4,100' AGL
  • Overcast at 8,000' AGL
Temperatures Readings
Current 15°C / 59°F
Dewpoint 8°C / 46°F
Humidity 63%
Altimeter 30.13" Hg
Pressure 1020 hPa
Elevation 306
METAR KC62 232235Z AUTO 16014G20KT 10SM BKN020 BKN041 OVC080 15/08 A3013 RMK AO2 T01480091
Observed Flight Rules
Apr-23 @ 22:35 UTC
(21 minutes ago)
MVFR
Wind Visibility
160° at 14 knots
 Gusting to 20 knots
10 miles
Clouds
  • Broken at 2,000' AGL
  • Broken at 4,100' AGL
  • Overcast at 8,000' AGL
Temperature Dewpoint
15°C / 59°F 8°C / 46°F
Humidity Altimeter Pressure
63% 30.13" Hg 1020 hPa